Time;durP1;ratioP1;P1;durP2;ratioP2;P2;SDS_P1;SDS_P2;PMS_P1;PMS_P2;Temp;Humidity;BMP_temperature;BMP_pressure;BME280_temperature;BME280_humidity;BME280_pressure;Samples;Min_cycle;Max_cycle;Signal;HPM_P1;HPM_P2
2022/08/29 00:01:55;;;;;;;3.72;0.90;;;16.10;77.80;;;;;;5057410;28;20117;-93
2022/08/29 00:04:21;;;;;;;3.00;0.95;;;16.10;77.90;;;;;;5074129;28;20024;-94
2022/08/29 00:06:46;;;;;;;5.78;0.90;;;16.00;78.00;;;;;;5073911;28;20465;-92
2022/08/29 00:09:12;;;;;;;6.95;1.20;;;16.00;78.10;;;;;;5057028;28;20021;-93
2022/08/29 00:11:38;;;;;;;5.15;1.00;;;16.00;78.10;;;;;;5073439;28;20060;-92
2022/08/29 00:14:04;;;;;;;5.78;1.00;;;16.00;78.20;;;;;;5074047;28;20062;-93
2022/08/29 00:16:29;;;;;;;9.15;0.98;;;15.90;78.20;;;;;;5056834;28;20491;-92
2022/08/29 00:18:55;;;;;;;8.85;0.95;;;15.90;78.30;;;;;;5039794;28;20037;-91
2022/08/29 00:21:22;;;;;;;6.22;1.38;;;15.80;78.40;;;;;;5072946;28;20116;-92
2022/08/29 00:23:47;;;;;;;4.13;1.20;;;15.80;78.50;;;;;;5073689;28;20021;-91
2022/08/29 00:26:13;;;;;;;6.95;1.15;;;15.80;78.50;;;;;;5055933;28;20025;-92
2022/08/29 00:28:39;;;;;;;4.45;0.80;;;15.80;78.70;;;;;;5073315;28;20025;-93
2022/08/29 00:31:04;;;;;;;4.78;1.00;;;15.80;78.70;;;;;;5056394;28;20028;-91
2022/08/29 00:33:30;;;;;;;2.42;0.70;;;15.80;78.70;;;;;;5040193;28;20024;-91
2022/08/29 00:35:56;;;;;;;2.30;0.75;;;15.70;78.70;;;;;;5040292;28;20107;-92
2022/08/29 00:38:22;;;;;;;2.65;0.93;;;15.70;78.90;;;;;;5070076;28;20077;-92
2022/08/29 00:40:51;;;;;;;3.85;0.95;;;15.70;78.90;;;;;;5036673;28;20056;-93
2022/08/29 00:43:20;;;;;;;4.15;0.85;;;15.70;78.90;;;;;;5054681;28;20025;-94
2022/08/29 00:45:56;;;;;;;3.38;0.80;;;15.70;79.00;;;;;;5054811;28;20021;-91
2022/08/29 00:48:22;;;;;;;4.88;0.80;;;15.60;79.10;;;;;;5056619;28;20035;-93
2022/08/29 00:50:52;;;;;;;5.20;1.05;;;15.60;79.20;;;;;;5024736;28;20021;-94
2022/08/29 00:53:28;;;;;;;4.60;0.88;;;15.60;79.20;;;;;;5057364;28;20469;-94
2022/08/29 00:55:53;;;;;;;6.03;0.95;;;15.60;79.30;;;;;;5056922;28;20025;-91
2022/08/29 00:58:36;;;;;;;3.22;0.70;;;15.60;79.30;;;;;;5056816;28;20385;-93
2022/08/29 01:01:03;;;;;;;3.50;0.90;;;15.60;79.30;;;;;;5056240;28;20481;-90
2022/08/29 01:03:32;;;;;;;3.97;0.93;;;15.50;79.30;;;;;;5056267;28;20040;-92
2022/08/29 01:05:59;;;;;;;6.68;1.25;;;15.50;79.40;;;;;;5057520;28;20048;-95
2022/08/29 01:08:25;;;;;;;5.60;1.23;;;15.50;79.40;;;;;;5058402;28;20115;-92
2022/08/29 01:13:39;;;;;;;3.78;0.70;;;15.50;79.70;;;;;;5057980;28;20530;-95
2022/08/29 01:16:06;;;;;;;3.47;0.75;;;15.40;79.70;;;;;;5057078;28;20021;-93
2022/08/29 01:18:34;;;;;;;5.03;1.00;;;15.40;79.80;;;;;;5040432;28;20029;-91
2022/08/29 01:21:27;;;;;;;6.03;0.70;;;15.30;79.90;;;;;;5039813;28;20119;-93
2022/08/29 01:24:14;;;;;;;5.45;1.00;;;15.30;80.10;;;;;;5056007;28;20435;-92
2022/08/29 01:26:43;;;;;;;5.82;0.88;;;15.30;80.10;;;;;;5055524;28;20033;-93
2022/08/29 01:29:09;;;;;;;4.85;1.30;;;15.20;80.00;;;;;;5056271;28;20059;-91
2022/08/29 01:31:45;;;;;;;4.72;1.02;;;15.20;80.10;;;;;;5055794;28;20021;-92
2022/08/29 01:34:13;;;;;;;6.03;0.93;;;15.20;80.40;;;;;;5057216;28;20146;-93
2022/08/29 01:36:46;;;;;;;5.10;1.23;;;15.10;80.50;;;;;;5056204;28;20036;-91
2022/08/29 01:39:12;;;;;;;3.92;1.00;;;15.10;80.70;;;;;;5056218;28;20124;-93
2022/08/29 01:41:38;;;;;;;3.33;0.73;;;15.10;80.90;;;;;;5057166;28;20067;-91
2022/08/29 01:44:10;;;;;;;3.08;0.65;;;15.00;81.00;;;;;;5059961;28;20033;-92
2022/08/29 01:46:37;;;;;;;3.90;0.80;;;15.00;81.10;;;;;;5062109;28;20029;-94
2022/08/29 01:49:06;;;;;;;4.88;0.98;;;15.00;81.20;;;;;;5043975;28;20025;-94
2022/08/29 01:51:32;;;;;;;5.38;1.05;;;14.90;81.30;;;;;;5057522;28;20037;-93
2022/08/29 01:53:58;;;;;;;5.68;1.30;;;14.90;81.40;;;;;;5056890;28;20099;-93
2022/08/29 01:56:30;;;;;;;4.25;0.80;;;14.90;81.50;;;;;;5057820;28;20056;-91
2022/08/29 01:58:58;;;;;;;4.68;1.00;;;14.80;81.70;;;;;;5057570;28;20190;-92
2022/08/29 02:01:28;;;;;;;7.47;0.80;;;14.80;81.70;;;;;;5062712;28;20028;-92
2022/08/29 02:03:54;;;;;;;3.92;0.95;;;14.80;81.80;;;;;;5060851;28;20079;-88
2022/08/29 02:06:20;;;;;;;5.28;0.98;;;14.80;81.90;;;;;;5041320;28;20028;-93
2022/08/29 02:08:46;;;;;;;4.18;1.08;;;14.80;82.00;;;;;;5039594;28;20151;-91
2022/08/29 02:11:15;;;;;;;6.18;1.15;;;14.80;82.10;;;;;;5071801;28;20067;-94
2022/08/29 02:13:49;;;;;;;2.22;0.90;;;14.70;82.20;;;;;;5056524;28;20025;-92
2022/08/29 02:16:16;;;;;;;3.85;1.08;;;14.70;82.30;;;;;;5056367;28;20029;-93
2022/08/29 02:18:42;;;;;;;4.90;0.90;;;14.70;82.40;;;;;;5055397;28;20037;-93
2022/08/29 02:21:10;;;;;;;4.28;0.80;;;14.70;82.50;;;;;;5058197;28;20064;-91
2022/08/29 02:23:36;;;;;;;5.55;1.05;;;14.60;82.60;;;;;;5056477;28;20033;-94
2022/08/29 02:26:03;;;;;;;6.65;1.10;;;14.60;82.70;;;;;;5040761;28;20183;-93
2022/08/29 02:28:30;;;;;;;3.47;1.27;;;14.60;82.80;;;;;;5056324;28;20404;-93
2022/08/29 02:30:56;;;;;;;9.43;1.05;;;14.60;83.00;;;;;;5055084;28;20029;-94
2022/08/29 02:33:23;;;;;;;3.65;1.00;;;14.60;83.00;;;;;;5038640;28;20420;-94
2022/08/29 02:35:49;;;;;;;3.08;1.08;;;14.60;83.10;;;;;;5055613;28;20031;-93
2022/08/29 02:38:15;;;;;;;5.38;0.90;;;14.60;83.20;;;;;;5055546;28;20447;-92
2022/08/29 02:40:42;;;;;;;3.72;1.23;;;14.50;83.20;;;;;;5054362;28;20043;-91
2022/08/29 02:43:08;;;;;;;2.83;1.05;;;14.50;83.20;;;;;;5054927;28;20021;-91
2022/08/29 02:45:38;;;;;;;5.57;1.40;;;14.50;83.20;;;;;;5056319;28;20025;-91
2022/08/29 02:48:05;;;;;;;5.45;1.08;;;14.50;83.30;;;;;;5058773;28;20123;-93
2022/08/29 02:50:30;;;;;;;4.63;1.30;;;14.50;83.40;;;;;;5060610;28;20032;-92
2022/08/29 02:52:56;;;;;;;3.97;1.35;;;14.40;83.40;;;;;;5064213;28;20029;-93
2022/08/29 02:55:23;;;;;;;7.95;1.42;;;14.50;83.60;;;;;;5044141;28;20033;-94
2022/08/29 02:57:50;;;;;;;5.65;1.27;;;14.50;83.60;;;;;;5040560;28;20608;-94
2022/08/29 03:00:22;;;;;;;5.80;1.40;;;14.40;83.90;;;;;;5059627;28;20084;-93
2022/08/29 03:02:48;;;;;;;7.45;1.52;;;14.50;84.30;;;;;;5060315;28;20465;-94
2022/08/29 03:05:15;;;;;;;4.57;1.20;;;14.40;84.50;;;;;;5062935;28;20028;-93
2022/08/29 03:07:41;;;;;;;5.68;1.60;;;14.40;84.60;;;;;;5045978;28;20096;-92
2022/08/29 03:10:07;;;;;;;8.45;1.30;;;14.40;84.60;;;;;;5058746;28;20025;-92
2022/08/29 03:12:35;;;;;;;7.43;1.30;;;14.40;84.60;;;;;;5056660;28;20049;-92
2022/08/29 03:15:01;;;;;;;4.93;1.77;;;14.40;84.50;;;;;;5059725;28;20066;-93
2022/08/29 03:17:26;;;;;;;4.43;1.25;;;14.30;84.40;;;;;;5060511;28;20029;-91
2022/08/29 03:19:52;;;;;;;5.47;1.33;;;14.30;84.40;;;;;;5057617;28;20037;-93
2022/08/29 03:22:18;;;;;;;5.53;1.45;;;14.20;84.40;;;;;;5041641;28;20025;-94
2022/08/29 03:24:43;;;;;;;4.82;1.65;;;14.20;84.40;;;;;;5056837;28;20111;-93
2022/08/29 03:27:09;;;;;;;6.07;1.48;;;14.10;84.50;;;;;;5040108;28;20565;-93
2022/08/29 03:29:36;;;;;;;5.90;1.80;;;14.10;84.60;;;;;;5054057;28;20029;-93
2022/08/29 03:32:03;;;;;;;6.72;1.95;;;14.10;84.80;;;;;;5055931;28;20025;-93
2022/08/29 03:34:29;;;;;;;6.35;1.80;;;14.10;84.90;;;;;;5038473;28;20188;-91
2022/08/29 03:36:55;;;;;;;3.63;1.55;;;14.00;84.90;;;;;;5054960;28;20052;-94
2022/08/29 03:39:21;;;;;;;8.32;2.95;;;14.10;85.00;;;;;;5062024;28;20033;-94
2022/08/29 03:41:46;;;;;;;7.20;2.20;;;14.00;84.80;;;;;;5042021;28;20032;-92
2022/08/29 03:44:13;;;;;;;6.03;1.85;;;14.00;84.80;;;;;;5056825;28;20109;-93
2022/08/29 03:46:39;;;;;;;6.78;1.77;;;14.00;84.90;;;;;;5042500;28;20051;-93
2022/08/29 03:49:06;;;;;;;4.75;1.60;;;14.00;84.90;;;;;;5046220;28;20029;-92
2022/08/29 03:51:37;;;;;;;8.57;2.03;;;14.00;84.80;;;;;;5063005;28;20018;-93
2022/08/29 03:54:04;;;;;;;7.22;1.98;;;14.00;84.80;;;;;;5067382;28;20044;-93
2022/08/29 03:56:29;;;;;;;8.63;2.05;;;14.00;84.80;;;;;;5046899;28;20025;-91
2022/08/29 03:58:56;;;;;;;6.65;2.72;;;14.00;84.80;;;;;;5067538;28;20048;-92
2022/08/29 04:01:25;;;;;;;8.80;2.28;;;14.00;84.80;;;;;;5068168;28;20029;-90
2022/08/29 04:03:51;;;;;;;5.72;2.08;;;14.00;84.70;;;;;;5051127;28;20029;-92
2022/08/29 04:06:18;;;;;;;8.65;2.17;;;14.00;84.60;;;;;;5045384;28;20029;-93
2022/08/29 04:08:46;;;;;;;5.55;1.50;;;14.00;84.60;;;;;;5058491;28;20039;-94
2022/08/29 04:11:13;;;;;;;7.03;2.00;;;14.00;84.60;;;;;;5055285;28;20040;-93
2022/08/29 04:13:39;;;;;;;6.50;2.53;;;14.00;84.50;;;;;;5055807;28;20032;-92
2022/08/29 04:16:13;;;;;;;6.55;2.13;;;14.00;84.50;;;;;;5054755;28;20457;-92
2022/08/29 04:18:39;;;;;;;5.78;2.15;;;14.10;84.60;;;;;;5055887;28;20124;-90
2022/08/29 04:21:06;;;;;;;6.28;1.95;;;14.10;84.60;;;;;;5055273;28;20067;-91
2022/08/29 04:23:33;;;;;;;7.90;2.30;;;14.10;84.60;;;;;;5041431;28;20025;-92
2022/08/29 04:25:59;;;;;;;9.02;2.75;;;14.10;84.50;;;;;;5059033;28;20025;-91
2022/08/29 04:28:25;;;;;;;9.25;2.58;;;14.10;84.60;;;;;;5059658;28;20090;-91
2022/08/29 04:30:52;;;;;;;9.25;2.70;;;14.20;84.50;;;;;;5060009;28;20028;-90
2022/08/29 04:33:19;;;;;;;9.65;2.60;;;14.20;84.50;;;;;;5062207;28;20385;-92
2022/08/29 04:35:45;;;;;;;9.45;2.20;;;14.20;84.50;;;;;;5059235;28;20096;-90
2022/08/29 04:38:10;;;;;;;8.20;2.20;;;14.20;84.50;;;;;;5058598;28;20067;-91
2022/08/29 04:40:41;;;;;;;9.40;2.40;;;14.20;84.50;;;;;;5043870;28;20072;-90
2022/08/29 04:43:08;;;;;;;7.32;1.98;;;14.30;84.50;;;;;;5045884;28;20377;-89
2022/08/29 04:45:39;;;;;;;9.95;2.45;;;14.30;84.50;;;;;;5062552;28;20025;-91
2022/08/29 04:48:05;;;;;;;8.77;2.33;;;14.40;84.50;;;;;;5043600;28;20029;-89
2022/08/29 04:50:31;;;;;;;6.88;2.15;;;14.40;84.30;;;;;;5042037;28;20025;-90
2022/08/29 04:52:57;;;;;;;6.38;1.95;;;14.40;84.30;;;;;;5058073;28;20072;-87
2022/08/29 04:55:24;;;;;;;6.15;2.00;;;14.50;84.30;;;;;;5056116;28;20021;-89
2022/08/29 04:57:51;;;;;;;10.10;2.78;;;14.50;84.20;;;;;;5057402;28;20509;-89
2022/08/29 05:00:22;;;;;;;6.75;1.98;;;14.60;84.20;;;;;;5056894;28;20497;-89
2022/08/29 05:02:47;;;;;;;5.85;2.00;;;14.60;84.10;;;;;;5058264;28;20024;-85
2022/08/29 05:05:15;;;;;;;8.40;2.47;;;14.60;84.00;;;;;;5044769;28;20060;-89
2022/08/29 05:07:41;;;;;;;6.95;2.38;;;14.70;83.90;;;;;;5058380;28;20025;-87
2022/08/29 05:10:12;;;;;;;5.53;1.92;;;14.70;83.80;;;;;;5059400;28;20029;-88
2022/08/29 05:12:38;;;;;;;8.48;1.80;;;14.70;83.70;;;;;;5060181;28;20487;-88
2022/08/29 05:15:06;;;;;;;8.82;2.22;;;14.70;83.50;;;;;;5060519;28;20461;-91
2022/08/29 05:17:32;;;;;;;6.25;2.28;;;14.80;83.40;;;;;;5067593;28;20025;-91
2022/08/29 05:19:57;;;;;;;6.22;2.00;;;14.80;83.20;;;;;;5068859;28;20101;-93
2022/08/29 05:22:23;;;;;;;5.07;2.00;;;14.90;83.20;;;;;;5051439;28;20029;-93
2022/08/29 05:24:50;;;;;;;6.47;2.33;;;14.90;83.00;;;;;;5050712;28;20025;-90
2022/08/29 05:27:18;;;;;;;6.05;1.98;;;14.90;82.90;;;;;;5082054;28;20056;-92
2022/08/29 05:29:46;;;;;;;7.38;2.13;;;15.00;82.90;;;;;;5059450;28;20021;-86
2022/08/29 05:32:13;;;;;;;7.43;2.53;;;15.00;82.70;;;;;;5071579;28;20061;-92
2022/08/29 05:34:41;;;;;;;18.75;2.72;;;15.00;82.60;;;;;;5038560;28;20492;-93
2022/08/29 05:37:10;;;;;;;8.25;2.10;;;15.10;82.60;;;;;;5039195;28;20116;-90
2022/08/29 05:39:37;;;;;;;8.38;2.20;;;15.20;82.70;;;;;;5055835;28;20037;-92
2022/08/29 05:42:04;;;;;;;6.20;1.92;;;15.20;82.70;;;;;;5056128;28;20504;-83
2022/08/29 05:44:31;;;;;;;8.93;1.98;;;15.20;82.80;;;;;;5053893;28;20021;-83
2022/08/29 05:46:57;;;;;;;9.60;2.22;;;15.20;82.80;;;;;;5054398;28;20029;-83
2022/08/29 05:49:24;;;;;;;8.80;2.30;;;15.30;82.80;;;;;;5060122;28;20032;-84
2022/08/29 05:51:55;;;;;;;5.85;1.58;;;15.30;82.60;;;;;;5071133;28;20026;-83
2022/08/29 05:54:21;;;;;;;4.85;2.05;;;15.30;82.40;;;;;;5070804;28;20547;-83
2022/08/29 05:56:47;;;;;;;6.97;2.47;;;15.40;82.30;;;;;;5055676;28;20028;-82
2022/08/29 05:59:15;;;;;;;10.45;2.22;;;15.40;82.20;;;;;;5069292;28;20056;-83
2022/08/29 06:01:40;;;;;;;4.38;1.70;;;15.40;82.10;;;;;;5072191;28;20024;-83
2022/08/29 06:04:06;;;;;;;7.18;1.85;;;15.40;82.00;;;;;;5069080;28;20032;-82
2022/08/29 06:06:31;;;;;;;6.13;1.98;;;15.40;81.90;;;;;;5072226;28;20032;-82
2022/08/29 06:08:58;;;;;;;6.85;2.30;;;15.40;81.80;;;;;;5064521;28;20029;-82
2022/08/29 06:11:33;;;;;;;6.63;1.90;;;15.50;81.80;;;;;;5061928;28;20043;-82
2022/08/29 06:14:00;;;;;;;5.97;2.05;;;15.50;81.70;;;;;;5071786;28;20024;-83
2022/08/29 06:16:28;;;;;;;6.10;1.67;;;15.60;81.60;;;;;;5069027;28;20124;-83
2022/08/29 06:18:54;;;;;;;5.25;2.42;;;15.60;81.50;;;;;;5073751;28;20029;-83
2022/08/29 06:21:19;;;;;;;6.78;1.92;;;15.70;81.40;;;;;;5072230;28;20024;-83
2022/08/29 06:23:46;;;;;;;8.95;2.33;;;15.80;81.50;;;;;;5072082;28;20063;-82
2022/08/29 06:26:12;;;;;;;5.15;1.83;;;15.80;81.40;;;;;;5067556;28;20028;-82
2022/08/29 06:28:44;;;;;;;6.57;2.08;;;15.90;81.20;;;;;;5061383;28;20052;-82
2022/08/29 06:31:22;;;;;;;6.28;2.03;;;16.00;81.00;;;;;;5062408;28;20017;-83
2022/08/29 06:33:52;;;;;;;8.38;2.42;;;16.10;80.80;;;;;;5063247;28;20423;-83
2022/08/29 06:36:19;;;;;;;9.10;2.00;;;16.20;80.60;;;;;;5063236;28;20136;-82
2022/08/29 06:38:45;;;;;;;7.70;2.20;;;16.30;80.40;;;;;;5062992;28;20043;-83
2022/08/29 06:41:15;;;;;;;6.05;2.15;;;16.30;80.10;;;;;;5061715;28;20106;-82
2022/08/29 06:43:42;;;;;;;6.85;2.28;;;16.40;79.80;;;;;;5069599;28;20025;-83
2022/08/29 06:46:18;;;;;;;9.32;2.38;;;16.40;79.60;;;;;;5071799;28;20043;-82
2022/08/29 06:48:43;;;;;;;9.93;1.92;;;16.50;79.40;;;;;;5072325;28;20020;-84
2022/08/29 06:51:09;;;;;;;5.22;2.03;;;16.60;79.40;;;;;;5065283;28;20572;-82
2022/08/29 06:53:34;;;;;;;5.60;1.70;;;16.70;79.20;;;;;;5038157;28;20060;-79
2022/08/29 06:56:05;;;;;;;8.45;2.15;;;16.70;79.00;;;;;;5058998;28;20028;-79
2022/08/29 06:58:31;;;;;;;4.80;1.85;;;16.80;78.80;;;;;;5050244;28;20033;-79
2022/08/29 07:00:57;;;;;;;8.32;2.67;;;16.90;78.70;;;;;;5070493;28;20044;-80
2022/08/29 07:03:22;;;;;;;6.43;2.00;;;16.90;78.40;;;;;;5071868;28;20024;-81
2022/08/29 07:05:52;;;;;;;6.40;2.20;;;17.00;78.30;;;;;;5055195;28;20055;-81
2022/08/29 07:08:18;;;;;;;5.07;1.75;;;17.00;78.10;;;;;;5071779;28;20487;-80
2022/08/29 07:10:44;;;;;;;5.38;1.73;;;17.10;78.00;;;;;;5053356;28;20036;-81
2022/08/29 07:13:10;;;;;;;5.15;1.83;;;17.20;78.00;;;;;;5062577;28;20024;-81
2022/08/29 07:15:36;;;;;;;7.20;2.00;;;17.20;77.90;;;;;;5040780;28;20432;-82
2022/08/29 07:18:02;;;;;;;10.35;2.08;;;17.30;77.70;;;;;;5063262;28;20059;-81
2022/08/29 07:20:27;;;;;;;5.70;1.63;;;17.40;77.40;;;;;;5070293;28;20127;-81
2022/08/29 07:22:54;;;;;;;5.68;1.92;;;17.50;77.20;;;;;;5073492;28;20521;-82
2022/08/29 07:25:20;;;;;;;4.57;1.40;;;17.60;76.80;;;;;;5072392;28;20112;-82
2022/08/29 07:27:47;;;;;;;7.35;2.28;;;17.70;76.30;;;;;;5072278;28;20021;-81
2022/08/29 07:30:15;;;;;;;6.07;1.63;;;17.80;76.10;;;;;;5055621;28;20024;-82
2022/08/29 07:32:43;;;;;;;3.25;1.30;;;17.90;75.80;;;;;;5055733;28;20024;-82
2022/08/29 07:35:11;;;;;;;6.00;2.00;;;18.00;75.50;;;;;;5067495;28;20098;-82
2022/08/29 07:37:37;;;;;;;5.03;1.55;;;18.20;75.20;;;;;;5051196;28;20064;-81
2022/08/29 07:40:03;;;;;;;7.18;1.90;;;18.20;75.00;;;;;;5055114;28;20056;-82
2022/08/29 07:42:29;;;;;;;5.30;1.92;;;18.30;74.80;;;;;;5072465;28;20029;-82
2022/08/29 07:44:55;;;;;;;4.93;1.27;;;18.40;74.50;;;;;;5055456;28;20044;-82
2022/08/29 07:47:21;;;;;;;7.53;1.80;;;18.50;74.20;;;;;;5055898;28;20105;-82
2022/08/29 07:49:46;;;;;;;5.70;1.67;;;18.50;73.80;;;;;;5071766;28;20024;-81
2022/08/29 07:52:12;;;;;;;5.45;1.58;;;18.60;73.50;;;;;;5072394;28;20029;-81
2022/08/29 07:54:38;;;;;;;4.28;1.80;;;18.70;73.20;;;;;;5071489;28;20098;-82
2022/08/29 07:57:03;;;;;;;8.23;1.88;;;18.80;72.90;;;;;;5053873;28;20021;-81
2022/08/29 07:59:29;;;;;;;7.10;1.70;;;18.80;72.60;;;;;;5076937;28;20135;-81
2022/08/29 08:01:55;;;;;;;10.02;2.58;;;18.90;72.40;;;;;;5076444;28;20039;-81
2022/08/29 08:04:21;;;;;;;8.73;2.30;;;19.00;72.10;;;;;;5075970;28;20467;-82
2022/08/29 08:06:47;;;;;;;6.22;2.13;;;19.00;71.50;;;;;;5080910;28;20376;-82
2022/08/29 08:09:15;;;;;;;9.75;1.95;;;19.00;71.20;;;;;;5078482;28;20067;-82
2022/08/29 08:11:41;;;;;;;7.30;1.92;;;19.10;71.10;;;;;;5078345;28;20028;-82
2022/08/29 08:14:08;;;;;;;6.07;1.70;;;19.20;70.70;;;;;;5078376;28;20040;-82
2022/08/29 08:16:34;;;;;;;6.38;1.50;;;19.30;70.60;;;;;;5076406;28;20083;-82
2022/08/29 08:19:00;;;;;;;6.22;1.83;;;19.40;70.50;;;;;;5076532;28;20491;-82
2022/08/29 08:21:26;;;;;;;5.03;1.52;;;19.50;70.50;;;;;;5075977;28;20025;-81
2022/08/29 08:23:52;;;;;;;4.72;1.58;;;19.60;70.30;;;;;;5076105;28;20111;-82
2022/08/29 08:26:18;;;;;;;4.95;1.42;;;19.70;70.20;;;;;;5076423;28;20522;-82
2022/08/29 08:28:44;;;;;;;5.68;1.83;;;19.70;69.90;;;;;;5076129;28;20043;-81
2022/08/29 08:31:12;;;;;;;7.15;1.83;;;19.90;69.70;;;;;;5058784;28;20055;-81
2022/08/29 08:33:38;;;;;;;4.28;1.23;;;19.90;69.30;;;;;;5074925;28;20530;-82
2022/08/29 08:36:11;;;;;;;7.20;1.45;;;20.00;69.00;;;;;;5076470;28;20135;-82
2022/08/29 08:38:36;;;;;;;5.38;1.38;;;20.10;68.90;;;;;;5075099;28;20119;-82
2022/08/29 08:41:34;;;;;;;5.45;1.50;;;20.10;68.50;;;;;;5058464;28;20120;-81
2022/08/29 08:44:07;;;;;;;4.38;1.38;;;20.20;68.10;;;;;;5076109;28;20043;-82
2022/08/29 08:46:42;;;;;;;6.70;1.88;;;20.20;67.30;;;;;;5074370;28;20063;-82
2022/08/29 08:49:39;;;;;;;5.28;1.75;;;20.30;67.40;;;;;;5074265;28;20491;-81
2022/08/29 08:52:14;;;;;;;5.25;1.50;;;20.30;66.60;;;;;;5074066;28;20068;-82
2022/08/29 08:54:56;;;;;;;3.65;1.13;;;20.40;66.60;;;;;;5074500;28;20017;-82
2022/08/29 08:57:24;;;;;;;5.85;1.75;;;20.50;66.40;;;;;;5074506;28;20069;-82
2022/08/29 08:59:57;;;;;;;7.43;1.52;;;20.60;66.30;;;;;;5058314;28;20059;-82
2022/08/29 09:02:47;;;;;;;5.25;1.23;;;20.70;66.40;;;;;;5057687;28;20103;-81
2022/08/29 09:05:27;;;;;;;5.40;1.40;;;20.90;65.90;;;;;;5074487;28;20073;-82
2022/08/29 09:08:00;;;;;;;6.63;1.67;;;21.00;65.30;;;;;;5074194;28;20411;-82
2022/08/29 09:10:48;;;;;;;4.70;1.40;;;21.10;64.70;;;;;;5074048;28;20048;-82
2022/08/29 09:13:45;;;;;;;5.53;1.45;;;21.20;64.20;;;;;;5075605;28;20063;-81
2022/08/29 09:16:24;;;;;;;4.20;1.45;;;21.30;64.00;;;;;;5074181;28;20033;-82
2022/08/29 09:18:50;;;;;;;2.97;1.10;;;21.30;64.00;;;;;;5073890;28;20032;-82
2022/08/29 09:21:19;;;;;;;3.45;1.20;;;21.40;64.00;;;;;;5074023;28;20102;-82
2022/08/29 09:23:51;;;;;;;4.40;1.23;;;21.50;63.70;;;;;;5075106;28;20028;-81
2022/08/29 09:26:20;;;;;;;4.10;1.23;;;21.70;63.50;;;;;;5073745;28;20020;-82
2022/08/29 09:28:46;;;;;;;5.47;1.30;;;21.80;63.60;;;;;;5074029;28;20085;-82
2022/08/29 09:31:17;;;;;;;4.70;1.23;;;22.00;63.10;;;;;;5074082;28;20021;-82
2022/08/29 09:33:51;;;;;;;6.18;1.23;;;22.10;62.60;;;;;;5075225;28;20472;-83
2022/08/29 09:36:38;;;;;;;3.65;1.40;;;22.30;62.00;;;;;;5073065;28;20120;-82
2022/08/29 09:39:24;;;;;;;4.30;1.38;;;22.40;61.40;;;;;;5073604;28;20048;-82
2022/08/29 09:41:53;;;;;;;6.00;1.50;;;22.50;60.80;;;;;;5073380;28;20028;-82
2022/08/29 09:44:26;;;;;;;2.72;1.00;;;22.50;60.70;;;;;;5073663;28;20027;-81
2022/08/29 09:47:08;;;;;;;3.08;1.38;;;22.50;60.20;;;;;;5074246;28;20093;-82
2022/08/29 09:49:37;;;;;;;4.13;1.30;;;22.60;60.00;;;;;;5070358;28;20064;-82
2022/08/29 09:52:10;;;;;;;6.45;1.50;;;22.60;59.90;;;;;;5072130;28;20132;-81
2022/08/29 09:54:42;;;;;;;3.53;1.30;;;22.60;60.00;;;;;;5074879;28;20047;-81
2022/08/29 09:57:17;;;;;;;6.75;1.35;;;22.50;60.20;;;;;;5027176;28;20056;-82
2022/08/29 09:59:46;;;;;;;4.18;1.30;;;22.50;60.10;;;;;;5061039;28;20048;-82
2022/08/29 10:02:36;;;;;;;4.03;1.20;;;22.40;60.20;;;;;;5078622;28;20028;-82
2022/08/29 10:05:08;;;;;;;4.22;1.00;;;22.40;60.40;;;;;;5068874;28;20028;-82
2022/08/29 10:07:56;;;;;;;3.17;1.10;;;22.30;60.40;;;;;;5061108;28;20028;-82
2022/08/29 10:10:25;;;;;;;3.47;1.15;;;22.30;60.80;;;;;;5066912;28;20046;-82
2022/08/29 10:13:29;;;;;;;4.35;1.20;;;22.20;61.10;;;;;;5069587;28;20043;-82
2022/08/29 10:16:22;;;;;;;3.83;1.20;;;22.20;61.40;;;;;;4992062;28;20533;-83
2022/08/29 10:18:51;;;;;;;7.03;1.33;;;22.10;61.30;;;;;;5003357;28;20042;-81
2022/08/29 10:21:39;;;;;;;3.83;1.10;;;22.20;61.40;;;;;;5042664;28;20128;-82
2022/08/29 10:24:13;;;;;;;4.75;1.60;;;22.20;61.40;;;;;;5067288;28;20111;-82
2022/08/29 10:26:49;;;;;;;4.90;1.25;;;22.30;61.40;;;;;;5068648;28;20388;-82
2022/08/29 10:29:36;;;;;;;5.13;1.13;;;22.50;61.20;;;;;;5060191;28;20036;-82
2022/08/29 10:32:06;;;;;;;2.75;1.00;;;22.70;61.00;;;;;;5071368;28;20032;-82
2022/08/29 10:34:56;;;;;;;3.65;0.85;;;23.40;61.30;;;;;;5071506;28;20029;-81
2022/08/29 10:37:27;;;;;;;2.67;0.70;;;24.20;60.50;;;;;;5066961;28;20064;-82
2022/08/29 10:40:10;;;;;;;4.88;1.00;;;24.70;59.70;;;;;;5072000;28;20086;-81
2022/08/29 10:42:39;;;;;;;3.33;1.10;;;25.10;58.50;;;;;;5066131;28;20052;-82
2022/08/29 10:45:43;;;;;;;3.95;0.90;;;25.50;58.10;;;;;;5079760;28;20043;-82
2022/08/29 10:48:36;;;;;;;3.40;0.70;;;25.90;56.70;;;;;;5059946;28;20111;-82
2022/08/29 10:51:13;;;;;;;4.25;1.27;;;26.10;56.40;;;;;;5065047;28;20029;-82
2022/08/29 10:53:46;;;;;;;3.63;1.00;;;26.10;55.80;;;;;;5082541;28;20024;-82
2022/08/29 10:56:18;;;;;;;;;;;26.10;55.70;;;;;;5067422;28;20028;-82
2022/08/29 10:59:17;;;;;;;3.90;0.73;;;26.10;55.60;;;;;;5071396;28;19960;-82
2022/08/29 11:01:49;;;;;;;3.60;0.95;;;26.10;55.90;;;;;;5071360;28;20028;-82
2022/08/29 11:04:22;;;;;;;3.53;0.70;;;26.60;56.10;;;;;;5071222;28;20488;-82
2022/08/29 11:07:18;;;;;;;3.42;0.88;;;26.80;55.30;;;;;;5072790;28;20443;-82
2022/08/29 11:10:09;;;;;;;2.35;0.80;;;26.90;54.20;;;;;;5062993;28;20039;-81
2022/08/29 11:12:54;;;;;;;2.55;0.88;;;26.70;53.90;;;;;;5059330;28;20419;-82
2022/08/29 11:15:40;;;;;;;2.03;0.70;;;26.90;54.50;;;;;;5070549;28;20024;-82
2022/08/29 11:18:11;;;;;;;3.05;1.08;;;27.30;53.90;;;;;;5071111;28;20035;-82
2022/08/29 11:20:49;;;;;;;3.95;1.00;;;27.40;53.70;;;;;;5071806;28;20039;-82
2022/08/29 11:23:29;;;;;;;4.13;0.77;;;27.50;53.40;;;;;;5072377;28;20387;-81
2022/08/29 11:26:01;;;;;;;4.63;1.38;;;27.60;52.60;;;;;;5068511;28;20036;-82
2022/08/29 11:28:52;;;;;;;3.80;0.95;;;28.20;52.80;;;;;;5073244;28;20028;-82
2022/08/29 11:31:41;;;;;;;3.42;0.80;;;28.90;52.50;;;;;;5068144;28;20537;-80
2022/08/29 11:34:24;;;;;;;3.40;0.98;;;29.70;51.60;;;;;;5072142;28;20024;-81
2022/08/29 11:37:37;;;;;;;2.70;1.20;;;30.70;51.20;;;;;;5061372;28;20032;-81
2022/08/29 11:40:36;;;;;;;2.08;0.70;;;31.60;49.40;;;;;;5084392;28;20476;-84
2022/08/29 11:43:04;;;;;;;4.45;1.00;;;32.10;48.10;;;;;;5051125;28;20017;-84
2022/08/29 11:45:36;;;;;;;2.50;0.80;;;32.10;48.90;;;;;;5050819;28;20033;-85
2022/08/29 11:48:33;;;;;;;4.72;1.00;;;32.00;47.30;;;;;;5053278;28;20032;-84
2022/08/29 11:51:19;;;;;;;4.55;1.27;;;31.70;46.70;;;;;;5052389;28;20028;-84
2022/08/29 11:53:46;;;;;;;5.20;1.10;;;31.30;46.70;;;;;;5051844;28;20021;-84
2022/08/29 11:56:12;;;;;;;2.28;0.80;;;31.00;46.50;;;;;;5035239;28;20025;-84
2022/08/29 11:58:41;;;;;;;3.80;0.88;;;30.70;46.40;;;;;;5051425;28;20025;-84
2022/08/29 12:01:37;;;;;;;3.88;0.93;;;30.40;46.60;;;;;;5051950;28;20044;-84
2022/08/29 12:04:08;;;;;;;4.20;1.00;;;30.00;46.80;;;;;;5039461;28;20135;-84
2022/08/29 12:06:39;;;;;;;3.80;0.98;;;29.70;47.10;;;;;;5052144;28;20025;-84
2022/08/29 12:09:11;;;;;;;4.20;1.25;;;29.40;47.50;;;;;;5052985;28;20032;-84
2022/08/29 12:12:11;;;;;;;3.00;0.90;;;29.40;47.80;;;;;;5055324;28;20021;-86
2022/08/29 12:14:49;;;;;;;3.63;0.95;;;29.50;47.60;;;;;;5053071;28;20051;-85
2022/08/29 12:17:28;;;;;;;2.40;0.80;;;29.70;47.50;;;;;;5054564;28;20358;-84
2022/08/29 12:20:03;;;;;;;4.57;1.08;;;29.90;47.30;;;;;;5057775;28;20044;-84
2022/08/29 12:22:50;;;;;;;4.05;1.13;;;30.00;47.00;;;;;;5057697;28;20467;-83
2022/08/29 12:25:28;;;;;;;5.30;1.20;;;30.00;46.50;;;;;;5055204;28;20040;-83
2022/08/29 12:28:02;;;;;;;4.35;1.20;;;30.00;46.80;;;;;;5053017;28;20025;-83
2022/08/29 12:30:34;;;;;;;3.83;0.90;;;30.10;46.60;;;;;;5052213;28;20025;-83
2022/08/29 12:33:35;;;;;;;3.38;1.05;;;30.20;46.30;;;;;;5052308;28;20484;-84
2022/08/29 12:36:24;;;;;;;4.20;1.00;;;30.00;45.90;;;;;;5052912;28;20021;-85
2022/08/29 12:39:36;;;;;;;6.13;1.10;;;29.80;46.00;;;;;;5051421;28;20453;-84
2022/08/29 12:42:24;;;;;;;2.90;0.80;;;29.70;46.20;;;;;;5051669;28;20087;-84
2022/08/29 12:45:04;;;;;;;5.65;1.00;;;29.80;46.30;;;;;;5025742;28;20116;-84
2022/08/29 12:47:30;;;;;;;6.20;1.20;;;29.90;46.30;;;;;;5056737;28;20036;-85
2022/08/29 12:50:02;;;;;;;2.05;0.70;;;29.90;46.20;;;;;;5056298;28;20029;-84
2022/08/29 12:52:32;;;;;;;5.40;1.00;;;29.90;45.80;;;;;;5060041;28;20032;-84
2022/08/29 12:55:16;;;;;;;2.25;0.82;;;29.90;45.70;;;;;;5067836;28;20288;-82
2022/08/29 12:57:44;;;;;;;2.53;0.80;;;29.80;45.50;;;;;;5073137;28;20036;-84
2022/08/29 13:00:20;;;;;;;3.85;0.80;;;29.70;45.50;;;;;;5060703;28;20087;-84
2022/08/29 13:02:57;;;;;;;5.45;1.10;;;29.60;45.60;;;;;;5059716;28;20029;-84
2022/08/29 13:05:25;;;;;;;2.95;0.90;;;29.80;45.60;;;;;;5074057;28;20112;-84
2022/08/29 13:07:58;;;;;;;3.22;0.80;;;30.10;45.60;;;;;;5071488;28;20105;-85
2022/08/29 13:10:24;;;;;;;3.05;0.80;;;30.40;45.20;;;;;;5072290;28;20111;-85
2022/08/29 13:12:50;;;;;;;2.83;0.77;;;30.60;45.10;;;;;;5057756;28;20085;-83